sensor_id;sensor_type;location;lat;lon;timestamp;P1;durP1;ratioP1;P2;durP2;ratioP2
15528;SDS011;7866;52.280;9.500;2023-03-01T00:02:17;3.33;;;2.53;;
15528;SDS011;7866;52.280;9.500;2023-03-01T00:07:20;2.50;;;2.30;;
15528;SDS011;7866;52.280;9.500;2023-03-01T00:12:22;3.17;;;2.67;;
15528;SDS011;7866;52.280;9.500;2023-03-01T00:17:24;2.30;;;2.10;;
15528;SDS011;7866;52.280;9.500;2023-03-01T00:22:27;3.00;;;2.53;;
15528;SDS011;7866;52.280;9.500;2023-03-01T00:27:29;2.60;;;2.40;;
15528;SDS011;7866;52.280;9.500;2023-03-01T00:32:31;2.53;;;2.20;;
15528;SDS011;7866;52.280;9.500;2023-03-01T00:37:34;2.70;;;2.50;;
15528;SDS011;7866;52.280;9.500;2023-03-01T00:42:35;2.70;;;2.50;;
15528;SDS011;7866;52.280;9.500;2023-03-01T00:47:38;2.53;;;2.20;;
15528;SDS011;7866;52.280;9.500;2023-03-01T00:52:41;2.30;;;2.10;;
15528;SDS011;7866;52.280;9.500;2023-03-01T00:57:42;2.87;;;2.63;;
15528;SDS011;7866;52.280;9.500;2023-03-01T01:02:44;2.70;;;2.50;;
15528;SDS011;7866;52.280;9.500;2023-03-01T01:07:47;2.73;;;2.53;;
15528;SDS011;7866;52.280;9.500;2023-03-01T01:12:49;3.90;;;2.13;;
15528;SDS011;7866;52.280;9.500;2023-03-01T01:17:51;2.97;;;2.67;;
15528;SDS011;7866;52.280;9.500;2023-03-01T01:22:54;3.20;;;2.83;;
15528;SDS011;7866;52.280;9.500;2023-03-01T01:27:55;2.73;;;2.53;;
15528;SDS011;7866;52.280;9.500;2023-03-01T01:32:57;4.43;;;3.07;;
15528;SDS011;7866;52.280;9.500;2023-03-01T01:38:00;3.30;;;3.00;;
15528;SDS011;7866;52.280;9.500;2023-03-01T01:43:01;3.13;;;2.83;;
15528;SDS011;7866;52.280;9.500;2023-03-01T01:48:03;2.80;;;2.60;;
15528;SDS011;7866;52.280;9.500;2023-03-01T01:53:14;3.20;;;2.80;;
15528;SDS011;7866;52.280;9.500;2023-03-01T01:58:19;3.40;;;3.03;;
15528;SDS011;7866;52.280;9.500;2023-03-01T02:03:22;3.17;;;2.90;;
15528;SDS011;7866;52.280;9.500;2023-03-01T02:08:30;2.73;;;2.53;;
15528;SDS011;7866;52.280;9.500;2023-03-01T02:13:34;3.67;;;2.97;;
15528;SDS011;7866;52.280;9.500;2023-03-01T02:18:37;2.93;;;2.63;;
15528;SDS011;7866;52.280;9.500;2023-03-01T02:23:41;3.37;;;2.90;;
15528;SDS011;7866;52.280;9.500;2023-03-01T02:28:44;2.83;;;2.63;;
15528;SDS011;7866;52.280;9.500;2023-03-01T02:33:46;3.47;;;3.17;;
15528;SDS011;7866;52.280;9.500;2023-03-01T02:38:48;3.17;;;2.87;;
15528;SDS011;7866;52.280;9.500;2023-03-01T02:43:54;3.50;;;2.77;;
15528;SDS011;7866;52.280;9.500;2023-03-01T02:48:57;3.13;;;2.83;;
15528;SDS011;7866;52.280;9.500;2023-03-01T02:54:04;6.43;;;2.87;;
15528;SDS011;7866;52.280;9.500;2023-03-01T02:59:14;2.87;;;2.67;;
15528;SDS011;7866;52.280;9.500;2023-03-01T03:04:18;3.30;;;2.93;;
15528;SDS011;7866;52.280;9.500;2023-03-01T03:09:21;3.60;;;3.10;;
15528;SDS011;7866;52.280;9.500;2023-03-01T03:14:24;3.20;;;2.90;;
15528;SDS011;7866;52.280;9.500;2023-03-01T03:19:25;3.00;;;2.80;;
15528;SDS011;7866;52.280;9.500;2023-03-01T03:24:27;3.87;;;3.20;;
15528;SDS011;7866;52.280;9.500;2023-03-01T03:29:39;4.00;;;3.07;;
15528;SDS011;7866;52.280;9.500;2023-03-01T03:34:40;3.90;;;3.50;;
15528;SDS011;7866;52.280;9.500;2023-03-01T03:39:42;3.13;;;2.90;;
15528;SDS011;7866;52.280;9.500;2023-03-01T03:44:45;3.53;;;3.00;;
15528;SDS011;7866;52.280;9.500;2023-03-01T03:49:47;3.80;;;3.23;;
15528;SDS011;7866;52.280;9.500;2023-03-01T03:54:48;3.67;;;3.27;;
15528;SDS011;7866;52.280;9.500;2023-03-01T03:59:51;3.33;;;3.03;;
15528;SDS011;7866;52.280;9.500;2023-03-01T04:04:53;4.07;;;3.07;;
15528;SDS011;7866;52.280;9.500;2023-03-01T04:09:54;4.20;;;3.80;;
15528;SDS011;7866;52.280;9.500;2023-03-01T04:14:57;3.57;;;3.27;;
15528;SDS011;7866;52.280;9.500;2023-03-01T04:19:59;5.70;;;3.50;;
15528;SDS011;7866;52.280;9.500;2023-03-01T04:25:06;4.10;;;3.70;;
15528;SDS011;7866;52.280;9.500;2023-03-01T04:30:10;4.20;;;3.80;;
15528;SDS011;7866;52.280;9.500;2023-03-01T04:35:12;4.63;;;3.80;;
15528;SDS011;7866;52.280;9.500;2023-03-01T04:40:14;3.57;;;3.27;;
15528;SDS011;7866;52.280;9.500;2023-03-01T04:45:18;5.07;;;4.57;;
15528;SDS011;7866;52.280;9.500;2023-03-01T04:50:20;3.90;;;3.50;;
15528;SDS011;7866;52.280;9.500;2023-03-01T04:55:23;4.73;;;3.87;;
15528;SDS011;7866;52.280;9.500;2023-03-01T05:00:27;4.20;;;3.80;;
15528;SDS011;7866;52.280;9.500;2023-03-01T05:05:30;3.40;;;3.10;;
15528;SDS011;7866;52.280;9.500;2023-03-01T05:10:35;4.13;;;3.63;;
15528;SDS011;7866;52.280;9.500;2023-03-01T05:15:40;4.50;;;3.47;;
15528;SDS011;7866;52.280;9.500;2023-03-01T05:20:42;3.63;;;3.20;;
15528;SDS011;7866;52.280;9.500;2023-03-01T05:25:44;4.07;;;3.67;;
15528;SDS011;7866;52.280;9.500;2023-03-01T05:30:47;4.63;;;3.43;;
15528;SDS011;7866;52.280;9.500;2023-03-01T05:35:51;4.07;;;3.57;;
15528;SDS011;7866;52.280;9.500;2023-03-01T05:40:53;5.00;;;3.63;;
15528;SDS011;7866;52.280;9.500;2023-03-01T05:45:57;3.60;;;3.30;;
15528;SDS011;7866;52.280;9.500;2023-03-01T05:51:00;4.37;;;3.83;;
15528;SDS011;7866;52.280;9.500;2023-03-01T05:56:02;3.93;;;3.53;;
15528;SDS011;7866;52.280;9.500;2023-03-01T06:01:10;4.27;;;3.97;;
15528;SDS011;7866;52.280;9.500;2023-03-01T06:06:12;4.83;;;3.70;;
15528;SDS011;7866;52.280;9.500;2023-03-01T06:11:15;4.10;;;3.70;;
15528;SDS011;7866;52.280;9.500;2023-03-01T06:16:18;3.73;;;3.50;;
15528;SDS011;7866;52.280;9.500;2023-03-01T06:21:20;4.10;;;3.70;;
15528;SDS011;7866;52.280;9.500;2023-03-01T06:26:21;4.13;;;3.70;;
15528;SDS011;7866;52.280;9.500;2023-03-01T06:31:24;4.70;;;4.20;;
15528;SDS011;7866;52.280;9.500;2023-03-01T06:36:26;4.77;;;3.83;;
15528;SDS011;7866;52.280;9.500;2023-03-01T06:41:27;5.87;;;4.70;;
15528;SDS011;7866;52.280;9.500;2023-03-01T06:46:30;5.57;;;4.47;;
15528;SDS011;7866;52.280;9.500;2023-03-01T06:51:33;19.60;;;5.10;;
15528;SDS011;7866;52.280;9.500;2023-03-01T06:56:34;5.30;;;4.30;;
15528;SDS011;7866;52.280;9.500;2023-03-01T07:01:37;4.37;;;3.97;;
15528;SDS011;7866;52.280;9.500;2023-03-01T07:06:39;5.03;;;4.53;;
15528;SDS011;7866;52.280;9.500;2023-03-01T07:11:41;4.47;;;4.07;;
15528;SDS011;7866;52.280;9.500;2023-03-01T07:16:44;4.10;;;3.77;;
15528;SDS011;7866;52.280;9.500;2023-03-01T07:21:45;4.97;;;4.13;;
15528;SDS011;7866;52.280;9.500;2023-03-01T07:26:48;5.03;;;4.50;;
15528;SDS011;7866;52.280;9.500;2023-03-01T07:31:51;4.33;;;3.93;;
15528;SDS011;7866;52.280;9.500;2023-03-01T07:36:53;5.17;;;4.13;;
15528;SDS011;7866;52.280;9.500;2023-03-01T07:41:54;18.17;;;3.80;;
15528;SDS011;7866;52.280;9.500;2023-03-01T07:46:57;4.83;;;4.43;;
15528;SDS011;7866;52.280;9.500;2023-03-01T07:51:59;4.60;;;3.97;;
15528;SDS011;7866;52.280;9.500;2023-03-01T07:57:00;5.73;;;4.87;;
15528;SDS011;7866;52.280;9.500;2023-03-01T08:02:03;5.60;;;4.67;;
15528;SDS011;7866;52.280;9.500;2023-03-01T08:07:05;5.33;;;4.73;;
15528;SDS011;7866;52.280;9.500;2023-03-01T08:12:07;6.33;;;5.40;;
15528;SDS011;7866;52.280;9.500;2023-03-01T08:17:10;6.73;;;6.00;;
15528;SDS011;7866;52.280;9.500;2023-03-01T08:22:11;9.07;;;6.97;;
15528;SDS011;7866;52.280;9.500;2023-03-01T08:27:14;7.53;;;6.27;;
15528;SDS011;7866;52.280;9.500;2023-03-01T08:32:17;6.43;;;5.83;;
15528;SDS011;7866;52.280;9.500;2023-03-01T08:37:19;7.83;;;6.10;;
15528;SDS011;7866;52.280;9.500;2023-03-01T08:42:20;8.30;;;6.30;;
15528;SDS011;7866;52.280;9.500;2023-03-01T08:47:23;8.00;;;6.97;;
15528;SDS011;7866;52.280;9.500;2023-03-01T08:52:26;7.47;;;6.60;;
15528;SDS011;7866;52.280;9.500;2023-03-01T08:57:27;7.27;;;6.30;;
15528;SDS011;7866;52.280;9.500;2023-03-01T09:02:30;8.27;;;7.13;;
15528;SDS011;7866;52.280;9.500;2023-03-01T09:07:32;9.03;;;6.73;;
15528;SDS011;7866;52.280;9.500;2023-03-01T09:12:34;8.10;;;6.90;;
15528;SDS011;7866;52.280;9.500;2023-03-01T09:17:37;7.87;;;6.80;;
15528;SDS011;7866;52.280;9.500;2023-03-01T09:22:38;10.07;;;6.63;;
15528;SDS011;7866;52.280;9.500;2023-03-01T09:27:40;6.97;;;6.27;;
15528;SDS011;7866;52.280;9.500;2023-03-01T09:32:43;9.23;;;6.60;;
15528;SDS011;7866;52.280;9.500;2023-03-01T09:37:45;7.47;;;6.40;;
15528;SDS011;7866;52.280;9.500;2023-03-01T09:42:49;8.60;;;6.07;;
15528;SDS011;7866;52.280;9.500;2023-03-01T09:47:56;9.03;;;6.27;;
15528;SDS011;7866;52.280;9.500;2023-03-01T09:53:00;7.50;;;5.33;;
15528;SDS011;7866;52.280;9.500;2023-03-01T09:58:05;5.60;;;4.80;;
15528;SDS011;7866;52.280;9.500;2023-03-01T10:03:24;5.67;;;4.80;;
15528;SDS011;7866;52.280;9.500;2023-03-01T10:08:30;4.97;;;4.30;;
15528;SDS011;7866;52.280;9.500;2023-03-01T10:13:37;6.17;;;5.00;;
15528;SDS011;7866;52.280;9.500;2023-03-01T10:18:50;5.73;;;4.83;;
15528;SDS011;7866;52.280;9.500;2023-03-01T10:23:54;5.37;;;4.67;;
15528;SDS011;7866;52.280;9.500;2023-03-01T10:29:01;6.43;;;5.20;;
15528;SDS011;7866;52.280;9.500;2023-03-01T10:34:08;6.90;;;5.90;;
15528;SDS011;7866;52.280;9.500;2023-03-01T10:39:16;9.47;;;5.97;;
15528;SDS011;7866;52.280;9.500;2023-03-01T10:44:34;7.73;;;5.50;;
15528;SDS011;7866;52.280;9.500;2023-03-01T10:49:38;8.93;;;6.30;;
15528;SDS011;7866;52.280;9.500;2023-03-01T10:54:40;8.17;;;6.60;;
15528;SDS011;7866;52.280;9.500;2023-03-01T10:59:41;7.73;;;6.77;;
15528;SDS011;7866;52.280;9.500;2023-03-01T11:04:57;8.33;;;6.67;;
15528;SDS011;7866;52.280;9.500;2023-03-01T11:10:03;9.00;;;6.23;;
15528;SDS011;7866;52.280;9.500;2023-03-01T11:15:19;7.83;;;6.20;;
15528;SDS011;7866;52.280;9.500;2023-03-01T11:20:27;8.97;;;5.50;;
15528;SDS011;7866;52.280;9.500;2023-03-01T11:25:32;6.93;;;5.60;;
15528;SDS011;7866;52.280;9.500;2023-03-01T11:30:38;6.63;;;5.50;;
15528;SDS011;7866;52.280;9.500;2023-03-01T11:35:47;7.70;;;5.77;;
15528;SDS011;7866;52.280;9.500;2023-03-01T11:40:55;7.70;;;5.73;;
15528;SDS011;7866;52.280;9.500;2023-03-01T11:46:05;6.57;;;5.20;;
15528;SDS011;7866;52.280;9.500;2023-03-01T11:51:31;5.37;;;4.60;;
15528;SDS011;7866;52.280;9.500;2023-03-01T11:56:43;5.40;;;4.80;;
15528;SDS011;7866;52.280;9.500;2023-03-01T12:01:57;5.57;;;4.60;;
15528;SDS011;7866;52.280;9.500;2023-03-01T12:07:16;7.40;;;4.77;;
15528;SDS011;7866;52.280;9.500;2023-03-01T12:12:32;6.30;;;4.60;;
15528;SDS011;7866;52.280;9.500;2023-03-01T12:17:47;5.97;;;4.73;;
15528;SDS011;7866;52.280;9.500;2023-03-01T12:23:20;5.67;;;4.70;;
15528;SDS011;7866;52.280;9.500;2023-03-01T12:28:34;4.67;;;4.03;;
15528;SDS011;7866;52.280;9.500;2023-03-01T12:33:49;5.33;;;4.50;;
15528;SDS011;7866;52.280;9.500;2023-03-01T12:39:02;6.73;;;4.80;;
15528;SDS011;7866;52.280;9.500;2023-03-01T12:49:44;4.90;;;4.33;;
15528;SDS011;7866;52.280;9.500;2023-03-01T12:54:52;4.80;;;4.37;;
15528;SDS011;7866;52.280;9.500;2023-03-01T13:00:01;4.50;;;4.03;;
15528;SDS011;7866;52.280;9.500;2023-03-01T13:05:22;4.93;;;4.03;;
15528;SDS011;7866;52.280;9.500;2023-03-01T13:10:31;4.37;;;3.97;;
15528;SDS011;7866;52.280;9.500;2023-03-01T13:15:35;7.53;;;4.03;;
15528;SDS011;7866;52.280;9.500;2023-03-01T13:20:45;3.77;;;3.37;;
15528;SDS011;7866;52.280;9.500;2023-03-01T13:26:01;4.87;;;3.97;;
15528;SDS011;7866;52.280;9.500;2023-03-01T13:31:07;4.93;;;3.80;;
15528;SDS011;7866;52.280;9.500;2023-03-01T13:36:11;4.37;;;3.60;;
15528;SDS011;7866;52.280;9.500;2023-03-01T13:41:50;4.77;;;4.00;;
15528;SDS011;7866;52.280;9.500;2023-03-01T13:46:53;4.73;;;4.03;;
15528;SDS011;7866;52.280;9.500;2023-03-01T13:51:58;4.43;;;4.03;;
15528;SDS011;7866;52.280;9.500;2023-03-01T13:57:01;6.77;;;4.07;;
15528;SDS011;7866;52.280;9.500;2023-03-01T14:02:11;4.57;;;3.70;;
15528;SDS011;7866;52.280;9.500;2023-03-01T14:07:17;5.87;;;3.37;;
15528;SDS011;7866;52.280;9.500;2023-03-01T14:12:28;4.30;;;3.33;;
15528;SDS011;7866;52.280;9.500;2023-03-01T14:17:43;4.10;;;3.47;;
15528;SDS011;7866;52.280;9.500;2023-03-01T14:22:52;4.00;;;3.47;;
15528;SDS011;7866;52.280;9.500;2023-03-01T14:28:04;3.70;;;3.27;;
15528;SDS011;7866;52.280;9.500;2023-03-01T14:33:18;4.00;;;3.60;;
15528;SDS011;7866;52.280;9.500;2023-03-01T14:38:22;3.40;;;3.10;;
15528;SDS011;7866;52.280;9.500;2023-03-01T14:43:26;5.13;;;3.03;;
15528;SDS011;7866;52.280;9.500;2023-03-01T14:48:27;3.97;;;3.20;;
15528;SDS011;7866;52.280;9.500;2023-03-01T14:53:31;3.50;;;3.20;;
15528;SDS011;7866;52.280;9.500;2023-03-01T14:58:34;3.57;;;3.20;;
15528;SDS011;7866;52.280;9.500;2023-03-01T15:03:36;5.40;;;3.10;;
15528;SDS011;7866;52.280;9.500;2023-03-01T15:08:41;3.50;;;2.90;;
15528;SDS011;7866;52.280;9.500;2023-03-01T15:13:50;4.97;;;3.43;;
15528;SDS011;7866;52.280;9.500;2023-03-01T15:18:53;3.30;;;3.00;;
15528;SDS011;7866;52.280;9.500;2023-03-01T15:23:57;3.30;;;3.00;;
15528;SDS011;7866;52.280;9.500;2023-03-01T15:29:05;3.97;;;3.30;;
15528;SDS011;7866;52.280;9.500;2023-03-01T15:34:21;4.07;;;2.90;;
15528;SDS011;7866;52.280;9.500;2023-03-01T15:39:34;3.60;;;2.80;;
15528;SDS011;7866;52.280;9.500;2023-03-01T15:44:44;4.87;;;2.83;;
15528;SDS011;7866;52.280;9.500;2023-03-01T15:49:46;3.00;;;2.70;;
15528;SDS011;7866;52.280;9.500;2023-03-01T15:54:47;3.20;;;2.90;;
15528;SDS011;7866;52.280;9.500;2023-03-01T15:59:50;2.67;;;2.40;;
15528;SDS011;7866;52.280;9.500;2023-03-01T16:04:52;3.33;;;3.03;;
15528;SDS011;7866;52.280;9.500;2023-03-01T16:09:56;5.53;;;3.63;;
15528;SDS011;7866;52.280;9.500;2023-03-01T16:14:59;4.37;;;3.97;;
15528;SDS011;7866;52.280;9.500;2023-03-01T16:20:01;5.43;;;3.83;;
15528;SDS011;7866;52.280;9.500;2023-03-01T16:25:05;3.53;;;3.07;;
15528;SDS011;7866;52.280;9.500;2023-03-01T16:30:10;3.40;;;2.70;;
15528;SDS011;7866;52.280;9.500;2023-03-01T16:35:13;4.00;;;2.73;;
15528;SDS011;7866;52.280;9.500;2023-03-01T16:40:18;2.70;;;2.50;;
15528;SDS011;7866;52.280;9.500;2023-03-01T16:45:23;2.87;;;2.67;;
15528;SDS011;7866;52.280;9.500;2023-03-01T16:50:24;3.00;;;2.80;;
15528;SDS011;7866;52.280;9.500;2023-03-01T16:55:26;3.20;;;2.90;;
15528;SDS011;7866;52.280;9.500;2023-03-01T17:00:29;7.10;;;3.50;;
15528;SDS011;7866;52.280;9.500;2023-03-01T17:05:31;3.97;;;3.13;;
15528;SDS011;7866;52.280;9.500;2023-03-01T17:10:32;3.73;;;3.07;;
15528;SDS011;7866;52.280;9.500;2023-03-01T17:15:36;3.00;;;2.70;;
15528;SDS011;7866;52.280;9.500;2023-03-01T17:20:39;3.43;;;2.90;;
15528;SDS011;7866;52.280;9.500;2023-03-01T17:25:41;2.93;;;2.63;;
15528;SDS011;7866;52.280;9.500;2023-03-01T17:30:45;3.23;;;2.90;;
15528;SDS011;7866;52.280;9.500;2023-03-01T17:35:48;3.00;;;2.73;;
15528;SDS011;7866;52.280;9.500;2023-03-01T17:40:50;2.97;;;2.70;;
15528;SDS011;7866;52.280;9.500;2023-03-01T17:45:54;4.97;;;3.30;;
15528;SDS011;7866;52.280;9.500;2023-03-01T17:50:56;2.83;;;2.60;;
15528;SDS011;7866;52.280;9.500;2023-03-01T17:55:58;2.53;;;2.33;;
15528;SDS011;7866;52.280;9.500;2023-03-01T18:01:10;3.43;;;2.87;;
15528;SDS011;7866;52.280;9.500;2023-03-01T18:06:13;3.57;;;2.80;;
15528;SDS011;7866;52.280;9.500;2023-03-01T18:11:16;3.07;;;2.87;;
15528;SDS011;7866;52.280;9.500;2023-03-01T18:16:20;3.83;;;2.93;;
15528;SDS011;7866;52.280;9.500;2023-03-01T18:21:23;4.53;;;2.87;;
15528;SDS011;7866;52.280;9.500;2023-03-01T18:26:24;3.27;;;2.93;;
15528;SDS011;7866;52.280;9.500;2023-03-01T18:31:29;3.40;;;2.83;;
15528;SDS011;7866;52.280;9.500;2023-03-01T18:36:33;3.27;;;2.97;;
15528;SDS011;7866;52.280;9.500;2023-03-01T18:41:36;4.97;;;3.13;;
15528;SDS011;7866;52.280;9.500;2023-03-01T18:46:39;5.10;;;3.30;;
15528;SDS011;7866;52.280;9.500;2023-03-01T18:51:41;3.93;;;3.50;;
15528;SDS011;7866;52.280;9.500;2023-03-01T18:56:43;4.03;;;3.67;;
15528;SDS011;7866;52.280;9.500;2023-03-01T19:01:47;3.70;;;3.00;;
15528;SDS011;7866;52.280;9.500;2023-03-01T19:06:48;3.40;;;3.00;;
15528;SDS011;7866;52.280;9.500;2023-03-01T19:11:50;3.07;;;2.77;;
15528;SDS011;7866;52.280;9.500;2023-03-01T19:16:53;3.87;;;3.10;;
15528;SDS011;7866;52.280;9.500;2023-03-01T19:21:54;3.50;;;3.20;;
15528;SDS011;7866;52.280;9.500;2023-03-01T19:26:56;3.60;;;3.30;;
15528;SDS011;7866;52.280;9.500;2023-03-01T19:31:59;3.30;;;3.00;;
15528;SDS011;7866;52.280;9.500;2023-03-01T19:37:01;4.03;;;3.57;;
15528;SDS011;7866;52.280;9.500;2023-03-01T19:42:03;4.00;;;3.60;;
15528;SDS011;7866;52.280;9.500;2023-03-01T19:47:07;7.07;;;3.53;;
15528;SDS011;7866;52.280;9.500;2023-03-01T19:52:08;4.07;;;3.10;;
15528;SDS011;7866;52.280;9.500;2023-03-01T19:57:10;4.17;;;2.77;;
15528;SDS011;7866;52.280;9.500;2023-03-01T20:02:13;5.53;;;3.60;;
15528;SDS011;7866;52.280;9.500;2023-03-01T20:07:15;3.33;;;3.03;;
15528;SDS011;7866;52.280;9.500;2023-03-01T20:12:16;3.87;;;3.47;;
15528;SDS011;7866;52.280;9.500;2023-03-01T20:17:19;3.77;;;3.47;;
15528;SDS011;7866;52.280;9.500;2023-03-01T20:22:21;3.97;;;3.17;;
15528;SDS011;7866;52.280;9.500;2023-03-01T20:27:23;3.47;;;3.17;;
15528;SDS011;7866;52.280;9.500;2023-03-01T20:32:25;5.07;;;3.70;;
15528;SDS011;7866;52.280;9.500;2023-03-01T20:37:27;4.37;;;3.87;;
15528;SDS011;7866;52.280;9.500;2023-03-01T20:42:29;3.90;;;3.53;;
15528;SDS011;7866;52.280;9.500;2023-03-01T20:47:32;4.90;;;4.23;;
15528;SDS011;7866;52.280;9.500;2023-03-01T20:52:33;5.00;;;4.50;;
15528;SDS011;7866;52.280;9.500;2023-03-01T20:57:35;6.17;;;5.20;;
15528;SDS011;7866;52.280;9.500;2023-03-01T21:02:38;8.20;;;6.27;;
15528;SDS011;7866;52.280;9.500;2023-03-01T21:07:40;6.67;;;5.33;;
15528;SDS011;7866;52.280;9.500;2023-03-01T21:12:41;8.77;;;6.87;;
15528;SDS011;7866;52.280;9.500;2023-03-01T21:17:44;9.03;;;7.07;;
15528;SDS011;7866;52.280;9.500;2023-03-01T21:22:47;7.43;;;6.07;;
15528;SDS011;7866;52.280;9.500;2023-03-01T21:27:48;9.40;;;7.23;;
15528;SDS011;7866;52.280;9.500;2023-03-01T21:32:51;6.57;;;5.43;;
15528;SDS011;7866;52.280;9.500;2023-03-01T21:37:53;4.50;;;4.10;;
15528;SDS011;7866;52.280;9.500;2023-03-01T21:42:54;4.30;;;3.90;;
15528;SDS011;7866;52.280;9.500;2023-03-01T21:47:57;5.60;;;4.20;;
15528;SDS011;7866;52.280;9.500;2023-03-01T21:52:59;4.60;;;4.10;;
15528;SDS011;7866;52.280;9.500;2023-03-01T21:58:04;4.87;;;4.10;;
15528;SDS011;7866;52.280;9.500;2023-03-01T22:03:07;3.83;;;3.50;;
15528;SDS011;7866;52.280;9.500;2023-03-01T22:08:09;5.23;;;4.00;;
15528;SDS011;7866;52.280;9.500;2023-03-01T22:13:10;4.13;;;3.70;;
15528;SDS011;7866;52.280;9.500;2023-03-01T22:18:13;4.10;;;3.80;;
15528;SDS011;7866;52.280;9.500;2023-03-01T22:23:15;4.53;;;3.87;;
15528;SDS011;7866;52.280;9.500;2023-03-01T22:28:16;5.63;;;4.27;;
15528;SDS011;7866;52.280;9.500;2023-03-01T22:33:20;5.03;;;4.13;;
15528;SDS011;7866;52.280;9.500;2023-03-01T22:38:22;5.30;;;4.20;;
15528;SDS011;7866;52.280;9.500;2023-03-01T22:43:24;4.80;;;4.17;;
15528;SDS011;7866;52.280;9.500;2023-03-01T22:48:27;4.67;;;3.83;;
15528;SDS011;7866;52.280;9.500;2023-03-01T22:53:29;4.97;;;3.97;;
15528;SDS011;7866;52.280;9.500;2023-03-01T22:58:31;5.57;;;4.00;;
15528;SDS011;7866;52.280;9.500;2023-03-01T23:03:34;4.77;;;4.37;;
15528;SDS011;7866;52.280;9.500;2023-03-01T23:08:35;3.90;;;3.60;;
15528;SDS011;7866;52.280;9.500;2023-03-01T23:13:37;4.43;;;4.03;;
15528;SDS011;7866;52.280;9.500;2023-03-01T23:18:41;4.43;;;3.83;;
15528;SDS011;7866;52.280;9.500;2023-03-01T23:23:44;3.93;;;3.57;;
15528;SDS011;7866;52.280;9.500;2023-03-01T23:28:46;4.30;;;3.90;;
15528;SDS011;7866;52.280;9.500;2023-03-01T23:33:50;4.73;;;4.23;;
15528;SDS011;7866;52.280;9.500;2023-03-01T23:38:52;4.20;;;3.80;;
15528;SDS011;7866;52.280;9.500;2023-03-01T23:43:57;4.40;;;3.90;;
15528;SDS011;7866;52.280;9.500;2023-03-01T23:49:01;3.80;;;3.50;;
15528;SDS011;7866;52.280;9.500;2023-03-01T23:54:03;4.90;;;3.80;;
15528;SDS011;7866;52.280;9.500;2023-03-01T23:59:06;4.30;;;3.87;;
